Aviation Digital Data Service (ADDS)

Output produced by METARs form (2003 UTC 06 March 2015)
found at http://aviationweather.gov/adds/metars/
 
KIAG 061731Z 0618/0718 22015KT P6SM FEW035 SCT250 
     FM070600 22016KT P6SM OVC050 
     FM071400 23014KT P6SM OVC035 
     FM071700 23014G23KT P6SM -SHSN OVC030